Time;durP1;ratioP1;P1;durP2;ratioP2;P2;SDS_P1;SDS_P2;PMS_P1;PMS_P2;Temp;Humidity;BMP_temperature;BMP_pressure;BME280_temperature;BME280_humidity;BME280_pressure;Samples;Min_cycle;Max_cycle;Signal;HPM_P1;HPM_P2
2023/08/18 00:00:07;;;;;;;26.38;15.50;;;26.50;97.40;;;;;;5053429;28;20044;-68
2023/08/18 00:03:13;;;;;;;25.45;15.70;;;26.40;97.40;;;;;;5053343;28;20401;-68
2023/08/18 00:06:17;;;;;;;24.67;15.90;;;26.50;97.50;;;;;;5053310;28;20044;-68
2023/08/18 00:09:21;;;;;;;23.45;15.40;;;26.50;97.50;;;;;;5052986;28;20068;-68
2023/08/18 00:12:25;;;;;;;23.88;16.08;;;26.50;97.40;;;;;;5053424;28;20043;-68
2023/08/18 00:15:29;;;;;;;23.65;16.02;;;26.50;97.60;;;;;;5053314;28;20048;-68
2023/08/18 00:18:33;;;;;;;24.15;15.32;;;26.40;97.30;;;;;;5052880;28;20064;-68
2023/08/18 00:21:36;;;;;;;28.58;15.27;;;26.30;97.50;;;;;;5052923;28;20044;-68
2023/08/18 00:24:40;;;;;;;24.75;13.98;;;26.30;97.50;;;;;;5053194;28;20047;-68
2023/08/18 00:27:44;;;;;;;21.63;13.60;;;26.30;97.40;;;;;;5052745;28;20499;-69
2023/08/18 00:30:48;;;;;;;18.02;13.75;;;26.30;97.10;;;;;;5052261;28;20047;-68
2023/08/18 00:33:52;;;;;;;19.88;13.77;;;26.30;97.00;;;;;;5052719;28;20040;-68
2023/08/18 00:36:56;;;;;;;23.85;14.75;;;26.30;96.90;;;;;;5052574;28;20405;-68
2023/08/18 00:40:00;;;;;;;22.95;14.38;;;26.30;96.80;;;;;;5051895;28;20400;-68
2023/08/18 00:43:05;;;;;;;18.70;13.85;;;26.20;96.80;;;;;;5052823;28;20036;-68
2023/08/18 00:46:09;;;;;;;16.17;13.25;;;26.10;96.80;;;;;;5052624;28;20595;-68
2023/08/18 00:49:15;;;;;;;24.55;13.48;;;26.10;96.80;;;;;;5051741;28;20052;-67
2023/08/18 00:52:19;;;;;;;21.27;14.27;;;26.10;96.90;;;;;;5052070;28;20475;-68
2023/08/18 00:55:29;;;;;;;19.83;13.77;;;26.10;96.90;;;;;;5051729;28;20047;-67
2023/08/18 00:58:36;;;;;;;18.73;14.10;;;26.00;96.90;;;;;;5052000;28;20079;-68
2023/08/18 01:01:41;;;;;;;24.30;14.25;;;26.00;96.90;;;;;;5052201;28;20036;-68
2023/08/18 01:04:45;;;;;;;18.88;13.52;;;26.00;96.80;;;;;;5052094;28;20044;-67
2023/08/18 01:07:50;;;;;;;19.98;14.40;;;26.00;96.90;;;;;;5051908;28;20044;-67
2023/08/18 01:11:18;;;;;;;19.05;14.43;;;26.00;96.80;;;;;;5051353;28;20059;-68
2023/08/18 01:15:07;;;;;;;17.95;14.27;;;26.00;96.70;;;;;;5051334;28;20048;-68
2023/08/18 01:18:12;;;;;;;17.77;13.05;;;26.00;96.70;;;;;;5050876;28;20079;-68
2023/08/18 01:21:17;;;;;;;23.42;14.23;;;25.90;96.90;;;;;;5051924;28;20233;-68
2023/08/18 01:24:24;;;;;;;26.88;14.10;;;25.90;96.90;;;;;;5051825;28;20044;-68
2023/08/18 01:27:32;;;;;;;23.00;13.73;;;25.90;96.80;;;;;;5051498;28;20424;-68
2023/08/18 01:30:44;;;;;;;22.55;14.05;;;26.00;96.80;;;;;;5052099;28;20052;-68
2023/08/18 01:34:09;;;;;;;22.23;14.13;;;26.00;97.00;;;;;;5051506;28;20040;-68
2023/08/18 01:37:17;;;;;;;25.48;15.45;;;26.00;97.10;;;;;;5050465;28;20051;-68
2023/08/18 01:40:27;;;;;;;22.08;14.75;;;26.00;97.10;;;;;;5050815;28;20046;-68
2023/08/18 01:43:35;;;;;;;25.40;13.85;;;25.90;97.30;;;;;;5051550;28;20528;-68
2023/08/18 01:46:39;;;;;;;19.67;14.40;;;25.80;97.40;;;;;;5051181;28;20040;-68
2023/08/18 01:49:43;;;;;;;19.55;14.40;;;25.70;97.60;;;;;;5050571;28;20048;-68
2023/08/18 01:52:47;;;;;;;18.60;14.40;;;25.60;97.70;;;;;;5051530;28;20044;-68
2023/08/18 01:55:50;;;;;;;21.45;13.93;;;25.60;97.80;;;;;;5050795;28;20099;-68
2023/08/18 01:58:55;;;;;;;17.90;14.15;;;25.60;97.70;;;;;;5050330;28;20048;-68
2023/08/18 02:01:59;;;;;;;19.38;13.98;;;25.60;97.40;;;;;;5038791;28;20048;-68
2023/08/18 02:05:03;;;;;;;16.50;13.13;;;25.60;97.40;;;;;;5051407;28;20111;-68
2023/08/18 02:08:07;;;;;;;25.25;14.80;;;25.50;97.50;;;;;;5050283;28;20039;-68
2023/08/18 02:11:10;;;;;;;19.63;13.02;;;25.50;97.60;;;;;;5051363;28;20440;-68
2023/08/18 02:14:15;;;;;;;17.98;13.35;;;25.50;97.60;;;;;;5050949;28;20040;-68
2023/08/18 02:17:19;;;;;;;18.98;14.25;;;25.40;97.70;;;;;;5050088;28;20047;-68
2023/08/18 02:20:23;;;;;;;19.90;14.32;;;25.50;97.70;;;;;;5050189;28;20044;-68
2023/08/18 02:23:27;;;;;;;20.70;14.38;;;25.40;97.70;;;;;;5051073;28;20040;-68
2023/08/18 02:26:31;;;;;;;18.60;15.50;;;25.40;97.60;;;;;;5050205;28;20043;-68
2023/08/18 02:29:34;;;;;;;16.77;14.18;;;25.40;97.70;;;;;;5050845;28;20048;-67
2023/08/18 02:32:38;;;;;;;21.00;15.20;;;25.40;97.60;;;;;;5050987;28;20516;-68
2023/08/18 02:35:44;;;;;;;19.85;14.38;;;25.50;97.60;;;;;;5049853;28;20064;-67
2023/08/18 02:38:48;;;;;;;21.98;14.65;;;25.50;97.70;;;;;;5050527;28;20511;-68
2023/08/18 02:41:52;;;;;;;24.42;14.75;;;25.50;97.50;;;;;;5050593;28;20048;-68
2023/08/18 02:44:56;;;;;;;20.50;14.30;;;25.50;97.50;;;;;;5050869;28;20384;-68
2023/08/18 02:48:00;;;;;;;26.45;14.98;;;25.40;97.50;;;;;;5049987;28;20032;-67
2023/08/18 02:51:05;;;;;;;22.42;17.00;;;25.40;97.70;;;;;;5049735;28;20052;-67
2023/08/18 02:54:09;;;;;;;21.13;15.02;;;25.30;97.80;;;;;;5050415;28;20032;-68
2023/08/18 02:57:13;;;;;;;21.52;15.45;;;25.30;97.90;;;;;;5049468;28;20059;-67
2023/08/18 03:00:17;;;;;;;21.48;14.73;;;25.30;97.80;;;;;;5053278;28;20048;-67
2023/08/18 03:03:23;;;;;;;21.75;14.85;;;25.30;97.90;;;;;;5054014;28;20392;-67
2023/08/18 03:06:26;;;;;;;21.67;14.45;;;25.30;97.90;;;;;;5054125;28;20048;-67
2023/08/18 03:09:30;;;;;;;19.33;15.60;;;25.30;97.90;;;;;;5053285;28;20052;-68
2023/08/18 03:12:35;;;;;;;23.98;14.50;;;25.20;98.00;;;;;;5054150;28;20048;-68
2023/08/18 03:15:40;;;;;;;22.88;14.27;;;25.20;97.90;;;;;;5054012;28;20546;-68
2023/08/18 03:18:44;;;;;;;19.85;14.18;;;25.30;97.90;;;;;;5053356;28;20052;-68
2023/08/18 03:21:48;;;;;;;19.00;13.52;;;25.30;97.90;;;;;;5054183;28;20611;-68
2023/08/18 03:24:53;;;;;;;19.13;14.52;;;25.30;97.80;;;;;;5053916;28;20048;-69
2023/08/18 03:27:57;;;;;;;24.33;14.10;;;25.20;97.80;;;;;;5053843;28;20295;-67
2023/08/18 03:31:04;;;;;;;20.65;14.70;;;24.10;97.80;;;;;;5054263;28;20048;-67
2023/08/18 03:34:10;;;;;;;18.38;13.75;;;25.00;98.40;;;;;;5053401;28;20044;-68
2023/08/18 03:37:14;;;;;;;19.85;15.10;;;25.00;98.30;;;;;;5053551;28;20405;-68
2023/08/18 03:40:18;;;;;;;20.10;14.18;;;25.00;98.00;;;;;;5054092;28;20044;-68
2023/08/18 03:43:22;;;;;;;17.80;13.65;;;25.00;98.20;;;;;;5053157;28;20044;-68
2023/08/18 03:46:26;;;;;;;19.75;14.07;;;25.00;98.30;;;;;;5053995;28;20044;-68
2023/08/18 03:49:32;;;;;;;23.73;13.65;;;25.00;98.10;;;;;;5053087;28;20043;-68
2023/08/18 03:52:37;;;;;;;17.02;13.75;;;24.90;98.30;;;;;;5052799;28;20602;-68
2023/08/18 03:55:42;;;;;;;17.35;13.85;;;24.90;98.20;;;;;;5052569;28;20103;-69
2023/08/18 03:58:47;;;;;;;22.88;14.80;;;24.80;98.10;;;;;;5052389;28;20047;-67
2023/08/18 04:01:51;;;;;;;18.42;14.20;;;24.80;98.10;;;;;;5052790;28;20044;-69
2023/08/18 04:04:55;;;;;;;25.10;14.48;;;24.80;98.10;;;;;;5052472;28;20322;-68
2023/08/18 04:07:59;;;;;;;22.10;13.63;;;24.80;98.30;;;;;;5053034;28;20388;-68
2023/08/18 04:11:02;;;;;;;23.40;14.32;;;24.70;98.40;;;;;;5052652;28;20496;-68
2023/08/18 04:14:06;;;;;;;18.25;14.43;;;24.70;98.50;;;;;;5052343;28;20492;-68
2023/08/18 04:17:10;;;;;;;22.27;14.40;;;24.70;98.20;;;;;;5052249;28;20048;-68
2023/08/18 04:20:14;;;;;;;26.67;13.73;;;24.70;98.20;;;;;;5052918;28;20048;-68
2023/08/18 04:23:19;;;;;;;19.20;13.65;;;24.70;98.30;;;;;;5052184;28;20314;-67
2023/08/18 04:26:23;;;;;;;20.90;13.85;;;24.70;98.30;;;;;;5052387;28;20401;-68
2023/08/18 04:29:28;;;;;;;20.50;14.02;;;24.70;98.30;;;;;;5052375;28;20052;-68
2023/08/18 04:32:33;;;;;;;23.00;14.20;;;24.70;98.20;;;;;;5052187;28;20044;-68
2023/08/18 04:35:37;;;;;;;23.10;14.57;;;24.70;98.10;;;;;;5051905;28;20068;-68
2023/08/18 04:38:41;;;;;;;21.25;14.40;;;24.70;98.20;;;;;;5051832;28;20048;-67
2023/08/18 04:41:49;;;;;;;18.75;13.68;;;24.80;98.10;;;;;;5052011;28;20048;-69
2023/08/18 04:44:53;;;;;;;26.10;14.68;;;24.70;98.10;;;;;;5051885;28;20052;-67
2023/08/18 04:47:57;;;;;;;22.20;14.25;;;24.80;98.10;;;;;;5051949;28;20481;-68
2023/08/18 04:51:01;;;;;;;18.65;14.48;;;24.80;98.10;;;;;;5051988;28;20055;-67
2023/08/18 04:54:05;;;;;;;24.27;13.25;;;24.90;98.00;;;;;;5051647;28;20040;-68
2023/08/18 04:57:10;;;;;;;27.55;13.93;;;25.00;97.70;;;;;;5052504;28;20047;-68
2023/08/18 05:00:14;;;;;;;19.20;14.55;;;25.10;97.50;;;;;;5051616;28;20416;-68
2023/08/18 05:03:18;;;;;;;19.75;13.90;;;25.30;97.50;;;;;;5051232;28;20043;-68
2023/08/18 05:06:22;;;;;;;26.05;13.93;;;25.50;97.40;;;;;;5051284;28;20043;-68
2023/08/18 05:09:26;;;;;;;23.63;15.02;;;25.80;97.00;;;;;;5052027;28;20044;-69
2023/08/18 05:12:30;;;;;;;20.33;14.80;;;26.30;96.30;;;;;;5052025;28;20048;-68
2023/08/18 05:15:34;;;;;;;26.35;15.05;;;26.80;95.40;;;;;;5051197;28;20044;-67
2023/08/18 05:18:38;;;;;;;21.65;13.27;;;27.20;94.90;;;;;;5051647;28;20072;-68
2023/08/18 05:21:42;;;;;;;26.10;13.32;;;27.90;93.90;;;;;;5050999;28;20039;-68
2023/08/18 05:24:47;;;;;;;20.95;14.35;;;28.40;93.20;;;;;;5050846;28;20040;-66
2023/08/18 05:27:51;;;;;;;20.15;14.30;;;28.70;92.20;;;;;;5051803;28;20040;-68
2023/08/18 05:30:56;;;;;;;25.27;14.32;;;28.50;92.80;;;;;;5051864;28;20056;-67
2023/08/18 05:33:59;;;;;;;23.67;14.93;;;28.80;92.50;;;;;;5051917;28;20052;-68
2023/08/18 05:37:04;;;;;;;23.52;15.05;;;29.20;91.70;;;;;;5051225;28;20056;-69
2023/08/18 05:40:09;;;;;;;32.72;15.52;;;29.40;91.90;;;;;;5051545;28;20112;-68
2023/08/18 05:43:14;;;;;;;28.10;14.00;;;29.10;91.70;;;;;;5051848;28;20044;-69
2023/08/18 05:46:17;;;;;;;20.67;13.88;;;28.80;92.80;;;;;;5051559;28;20044;-68
2023/08/18 05:49:21;;;;;;;25.50;14.40;;;28.70;93.00;;;;;;5051374;28;20048;-69
2023/08/18 05:52:25;;;;;;;23.00;14.02;;;28.70;92.60;;;;;;5051503;28;20048;-69
2023/08/18 05:55:30;;;;;;;16.55;13.00;;;28.70;92.60;;;;;;5051552;28;20043;-67
2023/08/18 05:58:34;;;;;;;18.25;13.65;;;28.90;92.30;;;;;;5050236;28;20626;-67
2023/08/18 06:01:38;;;;;;;21.65;13.77;;;29.00;92.10;;;;;;5051459;28;20499;-68
2023/08/18 06:04:43;;;;;;;31.10;15.15;;;29.20;92.10;;;;;;5051175;28;20422;-67
2023/08/18 06:07:47;;;;;;;21.25;14.27;;;29.00;92.00;;;;;;5051023;28;20059;-68
2023/08/18 06:10:51;;;;;;;27.10;16.73;;;29.10;92.20;;;;;;5051388;28;20059;-69
2023/08/18 06:13:55;;;;;;;24.60;15.38;;;29.20;92.20;;;;;;5050215;28;20048;-69
2023/08/18 06:16:59;;;;;;;19.98;14.00;;;29.30;92.20;;;;;;5050877;28;20040;-68
2023/08/18 06:20:04;;;;;;;24.15;14.32;;;29.50;92.20;;;;;;5051103;28;20051;-69
2023/08/18 06:23:08;;;;;;;30.00;17.10;;;29.70;91.90;;;;;;5050969;28;20044;-69
2023/08/18 06:26:12;;;;;;;21.75;17.40;;;29.90;92.00;;;;;;5050741;28;20104;-68
2023/08/18 06:29:16;;;;;;;30.33;16.67;;;30.00;91.80;;;;;;5051009;28;20040;-67
2023/08/18 06:32:20;;;;;;;28.80;14.68;;;30.10;91.90;;;;;;5049710;28;20043;-66
2023/08/18 06:35:24;;;;;;;22.15;12.85;;;30.20;91.70;;;;;;5049789;28;20212;-68
2023/08/18 06:38:28;;;;;;;23.33;12.43;;;30.60;91.30;;;;;;5049764;28;20429;-68
2023/08/18 06:41:33;;;;;;;23.83;11.80;;;30.70;91.00;;;;;;5050861;28;20048;-68
2023/08/18 06:44:37;;;;;;;19.77;12.18;;;31.30;90.60;;;;;;5050669;28;20510;-68
2023/08/18 06:47:41;;;;;;;19.77;11.88;;;32.20;89.00;;;;;;5050571;28;20047;-69
2023/08/18 06:50:45;;;;;;;17.63;11.55;;;33.10;86.80;;;;;;5050914;28;20048;-68
2023/08/18 06:53:49;;;;;;;17.30;11.00;;;33.80;85.00;;;;;;5050500;28;20048;-68
2023/08/18 06:56:52;;;;;;;16.70;11.20;;;34.30;83.90;;;;;;5050612;28;20199;-68
2023/08/18 06:59:56;;;;;;;17.50;11.18;;;34.50;83.00;;;;;;5050339;28;20056;-68
2023/08/18 07:03:01;;;;;;;25.83;11.60;;;34.90;81.40;;;;;;5050884;28;20040;-67
2023/08/18 07:06:05;;;;;;;23.80;11.88;;;35.00;81.10;;;;;;5050607;28;20048;-67
2023/08/18 07:09:09;;;;;;;20.70;11.73;;;35.20;81.10;;;;;;5050833;28;20056;-68
2023/08/18 07:12:13;;;;;;;15.95;10.55;;;35.10;80.90;;;;;;5050802;28;20056;-67
2023/08/18 07:15:17;;;;;;;17.17;10.05;;;35.20;81.10;;;;;;5050718;28;20111;-67
2023/08/18 07:18:21;;;;;;;16.50;9.98;;;35.60;80.90;;;;;;5050252;28;20401;-64
2023/08/18 07:21:26;;;;;;;17.52;10.10;;;35.90;79.60;;;;;;5050374;28;20041;-63
2023/08/18 07:24:30;;;;;;;14.07;11.10;;;36.30;78.40;;;;;;5050644;28;20044;-63
2023/08/18 07:27:34;;;;;;;14.27;9.30;;;36.20;78.60;;;;;;5050452;28;20122;-63
2023/08/18 07:30:38;;;;;;;18.65;9.48;;;36.50;77.50;;;;;;5050208;28;20048;-64
2023/08/18 07:33:42;;;;;;;16.90;10.73;;;36.70;77.60;;;;;;5050072;28;20043;-64
2023/08/18 07:36:46;;;;;;;18.63;9.98;;;36.70;77.20;;;;;;5049851;28;20056;-63
2023/08/18 07:39:49;;;;;;;23.30;10.55;;;36.70;77.60;;;;;;5050261;28;20056;-65
2023/08/18 07:42:54;;;;;;;14.68;9.77;;;36.80;77.60;;;;;;5050034;28;20064;-65
2023/08/18 07:45:58;;;;;;;15.80;9.02;;;37.00;76.90;;;;;;5053395;28;20067;-65
2023/08/18 07:49:03;;;;;;;13.98;8.63;;;37.30;76.40;;;;;;5053684;28;20048;-63
2023/08/18 07:52:07;;;;;;;15.43;8.73;;;37.40;75.60;;;;;;5053731;28;20056;-62
2023/08/18 07:55:12;;;;;;;16.33;10.13;;;37.40;75.40;;;;;;5050820;28;20044;-65
2023/08/18 07:58:16;;;;;;;19.85;8.13;;;37.50;75.50;;;;;;5053289;28;20432;-64
2023/08/18 08:01:20;;;;;;;19.88;8.98;;;37.70;74.50;;;;;;5053727;28;20064;-63
2023/08/18 08:04:25;;;;;;;85.00;10.88;;;37.80;74.00;;;;;;5053556;28;20051;-63
2023/08/18 08:07:32;;;;;;;20.85;8.68;;;37.90;73.80;;;;;;5053207;28;20044;-62
2023/08/18 08:10:36;;;;;;;18.45;9.25;;;37.60;74.00;;;;;;5053588;28;20573;-63
2023/08/18 08:13:40;;;;;;;14.70;8.27;;;37.40;74.80;;;;;;5052737;28;20044;-64
2023/08/18 08:16:44;;;;;;;20.90;8.23;;;37.30;73.80;;;;;;5053184;28;20047;-64
2023/08/18 08:19:48;;;;;;;14.95;9.50;;;37.30;73.20;;;;;;5052677;28;20059;-65
2023/08/18 08:22:52;;;;;;;19.00;7.45;;;36.60;75.00;;;;;;5051603;28;20044;-64
2023/08/18 08:25:56;;;;;;;17.27;9.32;;;35.90;75.20;;;;;;5052757;28;20218;-65
2023/08/18 08:29:00;;;;;;;571.58;46.33;;;35.40;76.30;;;;;;5050529;28;20032;-65
2023/08/18 08:32:03;;;;;;;42.42;12.30;;;35.10;78.20;;;;;;5052728;28;20400;-64
2023/08/18 08:35:08;;;;;;;35.72;12.20;;;35.00;77.50;;;;;;5052704;28;20044;-64
2023/08/18 08:38:12;;;;;;;34.88;10.88;;;34.80;78.90;;;;;;5052714;28;20405;-65
2023/08/18 08:41:16;;;;;;;14.23;9.55;;;34.90;77.60;;;;;;5052934;28;20043;-64
2023/08/18 08:44:20;;;;;;;15.57;8.00;;;34.60;77.50;;;;;;5053027;28;20063;-64
2023/08/18 08:47:25;;;;;;;15.73;8.57;;;34.40;78.40;;;;;;5052686;28;20392;-65
2023/08/18 08:50:31;;;;;;;17.33;9.48;;;34.50;79.00;;;;;;5051354;28;20060;-65
2023/08/18 08:53:43;;;;;;;14.43;9.73;;;34.20;78.20;;;;;;5052555;28;20543;-65
2023/08/18 08:56:49;;;;;;;12.00;8.20;;;34.00;79.00;;;;;;5052471;28;20052;-64
2023/08/18 08:59:54;;;;;;;22.65;10.50;;;34.00;79.80;;;;;;5052182;28;20437;-64
2023/08/18 09:03:02;;;;;;;17.25;8.60;;;34.20;79.10;;;;;;5052275;28;20496;-65
2023/08/18 09:06:07;;;;;;;13.02;8.80;;;34.20;79.30;;;;;;5051632;28;20040;-64
2023/08/18 09:09:11;;;;;;;31.30;9.57;;;34.10;78.30;;;;;;5051517;28;20044;-64
2023/08/18 09:12:15;;;;;;;41.67;10.82;;;34.10;78.90;;;;;;5052014;28;20168;-63
2023/08/18 09:15:21;;;;;;;16.33;8.25;;;34.10;78.80;;;;;;5052453;28;20421;-65
2023/08/18 09:18:25;;;;;;;13.45;7.78;;;34.10;77.40;;;;;;5051978;28;20055;-64
2023/08/18 09:21:31;;;;;;;13.10;7.70;;;34.10;77.50;;;;;;5052150;28;20309;-64
2023/08/18 09:24:35;;;;;;;14.60;8.02;;;34.20;77.60;;;;;;5051873;28;20416;-65
2023/08/18 09:27:39;;;;;;;10.88;7.35;;;34.20;77.60;;;;;;5051824;28;20048;-65
2023/08/18 09:30:43;;;;;;;13.02;8.55;;;34.20;76.90;;;;;;5051659;28;20052;-64
2023/08/18 09:33:47;;;;;;;8.93;6.80;;;34.10;76.40;;;;;;5051811;28;20060;-64
2023/08/18 09:36:55;;;;;;;17.33;8.25;;;34.00;76.80;;;;;;5051279;28;20064;-64
2023/08/18 09:40:01;;;;;;;8.02;6.40;;;34.00;75.70;;;;;;5051975;28;20444;-64
2023/08/18 09:43:05;;;;;;;13.38;7.32;;;34.00;76.30;;;;;;5051871;28;20036;-65
2023/08/18 09:46:13;;;;;;;13.02;7.53;;;34.10;76.50;;;;;;5051373;28;20409;-64
2023/08/18 09:49:19;;;;;;;17.35;7.70;;;34.20;76.00;;;;;;5051430;28;20047;-64
2023/08/18 09:52:25;;;;;;;15.38;7.60;;;34.20;75.40;;;;;;5050754;28;20039;-63
2023/08/18 09:55:35;;;;;;;9.48;6.55;;;34.20;75.50;;;;;;5050544;28;20369;-64
2023/08/18 09:58:51;;;;;;;9.48;6.40;;;34.20;75.60;;;;;;5051008;28;20516;-64
2023/08/18 10:01:55;;;;;;;13.77;7.57;;;34.30;75.40;;;;;;5051292;28;20048;-65
2023/08/18 10:05:00;;;;;;;16.13;8.35;;;34.40;75.80;;;;;;5051229;28;20496;-64
2023/08/18 10:08:04;;;;;;;9.27;7.13;;;34.40;75.60;;;;;;5050879;28;20056;-63
2023/08/18 10:11:10;;;;;;;18.67;8.35;;;34.40;75.90;;;;;;5051016;28;20041;-65
2023/08/18 10:14:14;;;;;;;12.82;8.82;;;34.50;76.50;;;;;;5050841;28;20048;-64
2023/08/18 10:17:23;;;;;;;12.77;8.30;;;34.60;77.30;;;;;;5050927;28;20048;-64
2023/08/18 10:20:27;;;;;;;16.55;8.98;;;34.60;77.30;;;;;;5050231;28;20059;-64
2023/08/18 10:23:33;;;;;;;10.85;7.95;;;34.70;78.00;;;;;;5051237;28;20040;-65
2023/08/18 10:26:42;;;;;;;8.45;7.65;;;34.70;78.50;;;;;;5050762;28;20409;-65
2023/08/18 10:29:49;;;;;;;9.88;7.70;;;34.70;78.40;;;;;;5050724;28;20040;-64
2023/08/18 10:33:00;;;;;;;21.77;10.15;;;34.80;78.30;;;;;;5050996;28;20508;-65
2023/08/18 10:36:06;;;;;;;13.80;8.93;;;34.90;77.70;;;;;;5051801;28;20056;-65
2023/08/18 10:39:33;;;;;;;12.45;8.73;;;34.90;78.20;;;;;;5051063;28;20170;-64
2023/08/18 10:42:38;;;;;;;12.70;7.97;;;35.00;78.10;;;;;;5050863;28;20600;-64
2023/08/18 10:45:42;;;;;;;8.65;7.85;;;35.00;78.20;;;;;;5050773;28;20071;-64
2023/08/18 10:48:47;;;;;;;9.23;7.43;;;35.00;78.90;;;;;;5050849;28;20056;-63
2023/08/18 10:51:53;;;;;;;10.90;7.82;;;35.00;79.40;;;;;;5050660;28;20041;-64
2023/08/18 10:54:57;;;;;;;15.80;9.30;;;35.00;79.30;;;;;;5050910;28;20112;-65
2023/08/18 10:58:02;;;;;;;8.20;7.40;;;35.00;78.60;;;;;;5050635;28;20064;-64
2023/08/18 11:01:09;;;;;;;11.68;8.15;;;35.00;78.60;;;;;;5050396;28;20041;-64
2023/08/18 11:04:14;;;;;;;12.52;8.75;;;35.00;78.60;;;;;;5050528;28;20044;-64
2023/08/18 11:07:22;;;;;;;13.55;8.73;;;35.00;78.30;;;;;;5050562;28;20052;-65
2023/08/18 11:10:27;;;;;;;9.23;7.82;;;34.90;78.00;;;;;;5050722;28;20040;-65
2023/08/18 11:13:31;;;;;;;14.65;7.95;;;34.90;78.40;;;;;;5050729;28;20048;-65
2023/08/18 11:16:37;;;;;;;9.85;7.43;;;34.90;78.90;;;;;;5050396;28;20052;-64
2023/08/18 11:19:42;;;;;;;8.98;7.85;;;34.90;79.50;;;;;;5052045;28;20071;-65
2023/08/18 11:22:48;;;;;;;11.82;7.82;;;34.90;79.10;;;;;;5054281;28;20065;-63
2023/08/18 11:25:52;;;;;;;12.18;7.93;;;34.90;79.60;;;;;;5054273;28;20044;-65
2023/08/18 11:28:57;;;;;;;9.13;8.05;;;34.80;79.90;;;;;;5054273;28;20593;-65
2023/08/18 11:32:02;;;;;;;10.80;7.90;;;34.80;79.50;;;;;;5054171;28;20389;-65
2023/08/18 11:35:07;;;;;;;11.13;7.38;;;34.70;78.90;;;;;;5053912;28;20471;-65
2023/08/18 11:38:11;;;;;;;7.70;6.88;;;34.70;81.00;;;;;;5053569;28;20595;-64
2023/08/18 11:41:15;;;;;;;10.65;6.30;;;34.60;80.40;;;;;;5053397;28;20065;-64
2023/08/18 11:44:20;;;;;;;9.15;6.80;;;34.70;80.20;;;;;;5053917;28;20040;-64
2023/08/18 11:47:25;;;;;;;11.93;7.55;;;34.70;80.60;;;;;;5053918;28;20051;-65
2023/08/18 11:50:38;;;;;;;12.25;7.03;;;34.70;80.00;;;;;;5053758;28;20048;-64
2023/08/18 11:53:42;;;;;;;8.23;6.80;;;34.70;80.10;;;;;;5053862;28;20056;-64
2023/08/18 11:56:46;;;;;;;11.73;7.22;;;34.70;79.50;;;;;;5053578;28;20037;-65
2023/08/18 11:59:51;;;;;;;8.63;6.93;;;34.70;78.40;;;;;;5053505;28;20377;-64
2023/08/18 12:02:55;;;;;;;6.90;6.20;;;34.60;78.00;;;;;;5053833;28;20048;-64
2023/08/18 12:06:00;;;;;;;8.70;6.28;;;34.60;78.30;;;;;;5053516;28;20037;-65
2023/08/18 12:09:05;;;;;;;8.60;6.68;;;34.70;78.60;;;;;;5053661;28;20064;-63
2023/08/18 12:12:15;;;;;;;7.05;6.25;;;34.70;79.50;;;;;;5053418;28;20517;-65
2023/08/18 12:15:21;;;;;;;13.35;7.05;;;34.60;80.10;;;;;;5053418;28;20037;-64
2023/08/18 12:18:25;;;;;;;8.52;6.60;;;34.60;80.40;;;;;;5052972;28;20405;-65
2023/08/18 12:21:30;;;;;;;11.15;6.68;;;34.60;80.70;;;;;;5053371;28;20067;-64
2023/08/18 12:24:36;;;;;;;9.80;6.35;;;34.60;80.60;;;;;;5053043;28;20044;-65
2023/08/18 12:27:41;;;;;;;10.57;7.80;;;34.60;80.70;;;;;;5052794;28;20138;-65
2023/08/18 12:30:45;;;;;;;12.35;7.05;;;34.60;81.00;;;;;;5052430;28;20048;-65
2023/08/18 12:33:49;;;;;;;10.48;6.95;;;34.50;81.30;;;;;;5053096;28;20048;-64
2023/08/18 12:36:56;;;;;;;12.57;7.30;;;34.40;80.90;;;;;;5052616;28;20056;-63
2023/08/18 12:40:00;;;;;;;11.52;6.93;;;34.40;80.80;;;;;;5052767;28;20052;-64
2023/08/18 12:43:04;;;;;;;12.13;7.25;;;34.40;80.80;;;;;;5053072;28;20039;-63
2023/08/18 12:46:08;;;;;;;7.75;6.97;;;34.30;81.30;;;;;;5052687;28;20040;-64
2023/08/18 12:49:11;;;;;;;11.93;7.47;;;34.40;81.60;;;;;;5052835;28;20037;-64
2023/08/18 12:52:16;;;;;;;9.98;7.00;;;34.30;81.50;;;;;;5051177;28;20044;-64
2023/08/18 12:55:20;;;;;;;10.52;7.47;;;34.30;81.60;;;;;;5050891;28;20044;-65
2023/08/18 12:58:24;;;;;;;8.20;7.35;;;34.20;81.00;;;;;;5051233;28;20184;-65
2023/08/18 13:01:27;;;;;;;8.18;6.70;;;34.20;80.80;;;;;;5039262;28;20050;-65
2023/08/18 13:04:32;;;;;;;15.18;8.35;;;34.20;80.90;;;;;;5051842;28;20029;-64
2023/08/18 13:07:36;;;;;;;9.95;6.90;;;34.20;80.30;;;;;;5052238;28;20392;-65
2023/08/18 13:10:40;;;;;;;7.03;6.28;;;34.10;80.40;;;;;;5051608;28;20048;-63
2023/08/18 13:13:44;;;;;;;9.02;6.78;;;34.10;80.50;;;;;;5052280;28;20039;-64
2023/08/18 13:16:49;;;;;;;15.20;8.05;;;34.00;80.20;;;;;;5051810;28;20040;-65
2023/08/18 13:19:53;;;;;;;9.15;7.00;;;34.00;80.40;;;;;;5052006;28;20047;-65
2023/08/18 13:22:57;;;;;;;8.10;7.30;;;33.90;81.00;;;;;;5052161;28;20044;-64
2023/08/18 13:26:01;;;;;;;11.27;6.72;;;33.90;81.80;;;;;;5052285;28;20048;-64
2023/08/18 13:29:06;;;;;;;14.10;7.30;;;34.60;81.20;;;;;;5051867;28;20044;-64
2023/08/18 13:32:09;;;;;;;10.45;7.07;;;36.10;79.00;;;;;;5051861;28;20048;-63
2023/08/18 13:35:14;;;;;;;10.23;7.03;;;37.10;77.00;;;;;;5051738;28;20044;-64
2023/08/18 13:38:18;;;;;;;11.75;6.80;;;37.60;75.30;;;;;;5051758;28;20064;-64
2023/08/18 13:41:23;;;;;;;11.05;7.07;;;37.50;75.40;;;;;;5050927;28;20408;-65
2023/08/18 13:44:27;;;;;;;11.90;7.38;;;37.80;74.50;;;;;;5051702;28;20052;-64
2023/08/18 13:47:31;;;;;;;13.45;6.32;;;38.10;74.00;;;;;;5051839;28;20056;-63
2023/08/18 13:50:35;;;;;;;10.70;6.28;;;38.20;73.70;;;;;;5051706;28;20583;-63
2023/08/18 13:53:39;;;;;;;9.95;6.50;;;38.20;73.20;;;;;;5051680;28;20052;-64
2023/08/18 13:56:44;;;;;;;12.73;6.57;;;37.80;73.50;;;;;;5051566;28;20127;-64
2023/08/18 13:59:49;;;;;;;13.82;6.78;;;37.50;74.30;;;;;;5051496;28;20059;-64
2023/08/18 14:02:52;;;;;;;10.18;6.85;;;38.00;73.60;;;;;;5051770;28;20063;-63
2023/08/18 14:05:57;;;;;;;8.95;6.45;;;37.90;73.40;;;;;;5051336;28;20056;-63
2023/08/18 14:09:02;;;;;;;12.50;6.25;;;38.20;73.10;;;;;;5050376;28;20040;-65
2023/08/18 14:12:07;;;;;;;8.05;6.20;;;38.30;72.80;;;;;;5051499;28;20068;-63
2023/08/18 14:15:11;;;;;;;9.82;6.22;;;38.40;72.50;;;;;;5051516;28;20046;-64
2023/08/18 14:18:16;;;;;;;10.02;6.05;;;38.50;72.20;;;;;;5051147;28;20366;-63
2023/08/18 14:21:21;;;;;;;9.65;5.95;;;38.30;72.90;;;;;;5051035;28;20048;-64
2023/08/18 14:24:24;;;;;;;8.93;6.18;;;38.20;72.60;;;;;;5051198;28;20536;-68
2023/08/18 14:27:28;;;;;;;15.57;7.97;;;38.20;71.80;;;;;;5050729;28;20469;-68
2023/08/18 14:30:32;;;;;;;11.18;6.53;;;37.70;72.00;;;;;;5051042;28;20064;-66
2023/08/18 14:33:39;;;;;;;12.68;6.53;;;37.40;72.80;;;;;;5050537;28;20048;-66
2023/08/18 14:36:43;;;;;;;11.15;5.97;;;37.30;72.40;;;;;;5049705;28;20052;-66
2023/08/18 14:39:47;;;;;;;6.93;6.15;;;37.50;72.60;;;;;;5050885;28;20056;-65
2023/08/18 14:42:51;;;;;;;8.43;6.13;;;38.00;71.90;;;;;;5049773;28;20044;-65
2023/08/18 14:45:55;;;;;;;17.38;6.28;;;38.20;71.50;;;;;;5050636;28;20037;-65
2023/08/18 14:48:59;;;;;;;9.70;5.50;;;38.20;70.80;;;;;;5050936;28;20052;-65
2023/08/18 14:52:06;;;;;;;10.18;5.13;;;38.30;70.40;;;;;;5049799;28;20041;-67
2023/08/18 14:55:10;;;;;;;11.25;5.13;;;38.50;70.10;;;;;;5053833;28;20051;-67
2023/08/18 14:58:14;;;;;;;9.75;6.03;;;38.60;69.60;;;;;;5053686;28;20037;-67
2023/08/18 15:01:18;;;;;;;6.68;5.45;;;38.70;69.50;;;;;;5054778;28;20502;-64
2023/08/18 15:04:21;;;;;;;9.90;5.65;;;38.90;69.30;;;;;;5054211;28;20038;-65
2023/08/18 15:07:26;;;;;;;10.60;5.50;;;38.80;69.50;;;;;;5054075;28;20408;-67
2023/08/18 15:10:29;;;;;;;12.73;5.82;;;38.90;69.80;;;;;;5054532;28;20048;-67
2023/08/18 15:13:33;;;;;;;6.85;5.55;;;38.80;69.50;;;;;;5054404;28;20055;-65
2023/08/18 15:16:38;;;;;;;10.48;5.95;;;38.50;70.10;;;;;;5054327;28;20040;-64
2023/08/18 15:19:42;;;;;;;14.18;6.00;;;38.40;70.30;;;;;;5054334;28;20056;-64
2023/08/18 15:22:46;;;;;;;11.05;5.57;;;38.40;70.50;;;;;;5054626;28;20055;-65
2023/08/18 15:25:50;;;;;;;11.00;5.93;;;38.60;69.90;;;;;;5054508;28;20532;-65
2023/08/18 15:28:54;;;;;;;11.95;6.53;;;38.90;69.90;;;;;;5054161;28;20052;-65
2023/08/18 15:31:57;;;;;;;13.00;6.50;;;39.10;69.40;;;;;;5054246;28;20044;-65
2023/08/18 15:35:02;;;;;;;8.30;5.78;;;38.90;69.00;;;;;;5053805;28;20088;-65
2023/08/18 15:38:06;;;;;;;11.05;5.43;;;38.90;69.40;;;;;;5053626;28;20060;-64
2023/08/18 15:41:10;;;;;;;8.25;5.72;;;39.00;67.20;;;;;;5054388;28;20068;-64
2023/08/18 15:44:14;;;;;;;14.05;5.25;;;38.60;66.90;;;;;;5054478;28;20036;-65